createdAt,value
2022-09-03T00:00:19.063Z,19.50
2022-09-03T00:03:23.568Z,19.50
2022-09-03T00:06:18.615Z,19.40
2022-09-03T00:09:31.364Z,19.40
2022-09-03T00:12:34.674Z,19.30
2022-09-03T00:15:24.463Z,19.30
2022-09-03T00:18:23.015Z,19.20
2022-09-03T00:21:37.658Z,19.20
2022-09-03T00:24:33.923Z,19.10
2022-09-03T00:27:28.258Z,19.10
2022-09-03T00:30:18.053Z,19.10
2022-09-03T00:33:18.930Z,18.90
2022-09-03T00:36:35.608Z,18.90
2022-09-03T00:39:27.272Z,18.90
2022-09-03T00:42:58.608Z,19.00
2022-09-03T00:46:09.514Z,19.00
2022-09-03T00:49:18.049Z,19.00
2022-09-03T00:52:28.783Z,19.00
2022-09-03T00:55:49.009Z,18.90
2022-09-03T00:59:44.048Z,18.80
2022-09-03T01:03:10.103Z,18.80
2022-09-03T01:06:43.243Z,18.80
2022-09-03T01:10:21.388Z,18.80
2022-09-03T01:13:20.020Z,18.80
2022-09-03T01:16:30.278Z,18.60
2022-09-03T01:19:56.087Z,18.50
2022-09-03T01:23:24.849Z,18.50
2022-09-03T01:26:52.358Z,18.30
2022-09-03T01:30:08.115Z,18.50
2022-09-03T01:33:28.982Z,18.50
2022-09-03T01:36:56.198Z,18.50
2022-09-03T01:40:13.283Z,18.50
2022-09-03T01:43:17.892Z,18.40
2022-09-03T01:46:27.148Z,18.40
2022-09-03T01:49:43.688Z,18.40
2022-09-03T01:52:46.309Z,18.30
2022-09-03T01:56:14.124Z,18.30
2022-09-03T01:59:04.883Z,18.20
2022-09-03T02:02:23.364Z,18.20
2022-09-03T02:05:27.873Z,18.20
2022-09-03T02:08:15.383Z,18.10
2022-09-03T02:11:09.620Z,18.20
2022-09-03T02:13:59.925Z,18.20
2022-09-03T02:16:47.462Z,18.20
2022-09-03T02:19:37.822Z,18.20
2022-09-03T02:22:25.493Z,18.10
2022-09-03T02:25:14.033Z,18.10
2022-09-03T02:28:02.638Z,18.10
2022-09-03T02:30:51.056Z,18.10
2022-09-03T02:33:43.067Z,18.10
2022-09-03T02:36:36.137Z,18.10
2022-09-03T02:39:23.672Z,18.10
2022-09-03T02:42:14.737Z,18.10
2022-09-03T02:45:23.502Z,18.20
2022-09-03T02:48:14.128Z,18.50
2022-09-03T02:51:01.859Z,18.70
2022-09-03T02:54:01.639Z,18.70
2022-09-03T02:56:49.921Z,18.70
2022-09-03T02:59:38.489Z,18.60
2022-09-03T03:02:26.032Z,18.40
2022-09-03T03:05:30.327Z,18.50
2022-09-03T03:08:21.794Z,18.20
2022-09-03T03:11:09.660Z,18.40
2022-09-03T03:13:57.309Z,18.60
2022-09-03T03:16:45.420Z,18.80
2022-09-03T03:19:32.908Z,18.90
2022-09-03T03:22:20.447Z,18.60
2022-09-03T03:25:09.992Z,18.30
2022-09-03T03:27:57.508Z,18.20
2022-09-03T03:30:47.696Z,18.10
2022-09-03T03:33:36.140Z,18.00
2022-09-03T03:36:26.813Z,18.00
2022-09-03T03:39:14.274Z,18.20
2022-09-03T03:42:01.835Z,18.30
2022-09-03T03:44:49.708Z,18.30
2022-09-03T03:47:38.047Z,18.10
2022-09-03T03:50:26.856Z,18.10
2022-09-03T03:53:14.553Z,18.00
2022-09-03T03:56:06.183Z,18.00
2022-09-03T03:58:55.147Z,18.00
2022-09-03T04:01:44.060Z,17.90
2022-09-03T04:04:31.549Z,17.90
2022-09-03T04:07:19.065Z,17.80
2022-09-03T04:10:07.625Z,17.70
2022-09-03T04:12:55.460Z,17.60
2022-09-03T04:15:43.133Z,17.70
2022-09-03T04:18:32.267Z,17.60
2022-09-03T04:21:28.794Z,17.70
2022-09-03T04:24:16.448Z,17.70
2022-09-03T04:27:04.199Z,17.70
2022-09-03T04:29:51.692Z,17.60
2022-09-03T04:32:54.672Z,17.50
2022-09-03T04:35:43.201Z,17.60
2022-09-03T04:38:31.877Z,17.70
2022-09-03T04:41:25.059Z,17.80
2022-09-03T04:44:12.552Z,17.80
2022-09-03T04:47:00.053Z,17.80
2022-09-03T04:49:47.512Z,17.70
2022-09-03T04:52:34.996Z,17.90
2022-09-03T04:55:23.226Z,18.00
2022-09-03T04:58:10.718Z,18.30
2022-09-03T05:00:58.375Z,18.50
2022-09-03T05:03:46.288Z,18.60
2022-09-03T05:06:36.132Z,18.80
2022-09-03T05:09:24.536Z,19.10
2022-09-03T05:12:13.199Z,19.70
2022-09-03T05:15:00.757Z,20.40
2022-09-03T05:17:48.252Z,22.00
2022-09-03T05:20:35.992Z,22.80
2022-09-03T05:23:23.482Z,24.10
2022-09-03T05:26:15.806Z,25.00
2022-09-03T05:29:08.217Z,25.40
2022-09-03T05:31:55.740Z,25.70
2022-09-03T05:34:46.216Z,25.60
2022-09-03T05:37:33.752Z,25.20
2022-09-03T05:40:21.232Z,25.30
2022-09-03T05:43:08.781Z,25.00
2022-09-03T05:46:06.282Z,24.70
2022-09-03T05:48:54.129Z,24.10
2022-09-03T05:51:42.640Z,23.00
2022-09-03T05:54:30.102Z,22.80
2022-09-03T05:57:17.651Z,22.50
2022-09-03T06:00:05.853Z,22.40
2022-09-03T06:02:54.296Z,22.30
2022-09-03T06:05:54.568Z,22.10
2022-09-03T06:08:44.981Z,22.10
2022-09-03T06:11:35.581Z,22.00
2022-09-03T06:14:23.865Z,21.90
2022-09-03T06:17:12.929Z,21.80
2022-09-03T06:20:00.378Z,22.40
2022-09-03T06:22:53.138Z,21.90
2022-09-03T06:25:40.602Z,22.80
2022-09-03T06:28:31.387Z,22.70
2022-09-03T06:31:20.185Z,22.60
2022-09-03T06:34:08.516Z,22.70
2022-09-03T06:36:55.979Z,22.80
2022-09-03T06:39:43.541Z,23.20
2022-09-03T06:42:31.611Z,23.00
2022-09-03T06:45:19.089Z,23.00
2022-09-03T06:48:06.607Z,23.00
2022-09-03T06:51:13.806Z,22.90
2022-09-03T06:54:07.756Z,23.30
2022-09-03T06:56:55.317Z,23.60
2022-09-03T06:59:44.001Z,23.70
2022-09-03T07:02:31.568Z,24.00
2022-09-03T07:05:19.015Z,24.30
2022-09-03T07:08:07.164Z,24.40
2022-09-03T07:10:54.738Z,24.50
2022-09-03T07:13:46.730Z,24.40
2022-09-03T07:16:38.433Z,24.30
2022-09-03T07:19:26.143Z,24.30
2022-09-03T07:22:13.628Z,24.40
2022-09-03T07:25:02.546Z,24.20
2022-09-03T07:27:51.318Z,24.30
2022-09-03T07:30:38.998Z,24.30
2022-09-03T07:33:26.538Z,24.80
2022-09-03T07:36:17.353Z,24.90
2022-09-03T07:39:06.177Z,25.00
2022-09-03T07:41:53.913Z,25.00
2022-09-03T07:44:41.470Z,25.50
2022-09-03T07:47:29.780Z,25.00
2022-09-03T07:50:17.463Z,25.20
2022-09-03T07:53:04.977Z,25.10
2022-09-03T07:55:52.454Z,25.10
2022-09-03T07:58:43.412Z,25.20
2022-09-03T08:01:33.057Z,25.00
2022-09-03T08:04:22.287Z,24.90
2022-09-03T08:07:09.925Z,24.70
2022-09-03T08:09:58.309Z,25.20
2022-09-03T08:12:45.873Z,25.20
2022-09-03T08:15:34.897Z,25.70
2022-09-03T08:18:23.337Z,25.60
2022-09-03T08:21:15.871Z,25.70
2022-09-03T08:24:04.237Z,25.70
2022-09-03T08:26:52.743Z,26.00
2022-09-03T08:29:40.276Z,25.80
2022-09-03T08:32:27.867Z,25.60
2022-09-03T08:35:15.427Z,25.90
2022-09-03T08:38:05.829Z,26.40
2022-09-03T08:41:10.507Z,26.50
2022-09-03T08:44:24.352Z,26.40
2022-09-03T08:48:03.473Z,26.10
2022-09-03T08:51:00.153Z,25.60
2022-09-03T08:53:56.747Z,26.20
2022-09-03T08:56:46.228Z,26.60
2022-09-03T08:59:33.977Z,27.00
2022-09-03T09:02:57.147Z,27.20
2022-09-03T09:05:55.018Z,27.10
2022-09-03T09:09:00.403Z,27.20
2022-09-03T09:12:14.297Z,27.30
2022-09-03T09:15:50.875Z,27.60
2022-09-03T09:19:05.874Z,28.00
2022-09-03T09:22:03.629Z,28.00
2022-09-03T09:24:57.013Z,27.80
2022-09-03T09:28:17.612Z,28.00
2022-09-03T09:31:09.930Z,28.00
2022-09-03T09:34:09.094Z,28.30
2022-09-03T09:36:56.911Z,28.50
2022-09-03T09:40:01.255Z,28.50
2022-09-03T09:42:49.007Z,28.50
2022-09-03T09:45:39.577Z,28.80
2022-09-03T09:48:31.839Z,29.00
2022-09-03T09:51:26.897Z,28.80
2022-09-03T09:54:19.112Z,28.40
2022-09-03T09:57:17.910Z,28.70
2022-09-03T10:00:13.347Z,28.50
2022-09-03T10:03:02.153Z,28.90
2022-09-03T10:06:23.394Z,29.10
2022-09-03T10:09:21.558Z,29.00
2022-09-03T10:12:43.497Z,29.10
2022-09-03T10:15:37.865Z,28.90
2022-09-03T10:18:55.188Z,29.00
2022-09-03T10:22:19.003Z,29.10
2022-09-03T10:25:08.892Z,29.60
2022-09-03T10:28:01.442Z,30.10
2022-09-03T10:31:19.243Z,30.20
2022-09-03T10:34:58.901Z,30.20
2022-09-03T10:38:11.297Z,30.30
2022-09-03T10:41:08.043Z,30.60
2022-09-03T10:44:35.676Z,30.70
2022-09-03T10:48:00.378Z,31.00
2022-09-03T10:51:19.192Z,31.10
2022-09-03T10:55:07.177Z,31.30
2022-09-03T10:58:23.761Z,30.00
2022-09-03T11:02:02.364Z,30.30
2022-09-03T11:05:29.972Z,30.80
2022-09-03T11:08:38.032Z,31.10
2022-09-03T11:11:37.142Z,31.10
2022-09-03T11:14:41.075Z,31.10
2022-09-03T11:17:38.502Z,30.70
2022-09-03T11:20:27.239Z,30.30
2022-09-03T11:23:16.967Z,30.30
2022-09-03T11:26:12.987Z,28.70
2022-09-03T11:29:24.097Z,29.80
2022-09-03T11:32:24.347Z,30.50
2022-09-03T11:35:25.505Z,30.30
2022-09-03T11:38:16.730Z,30.80
2022-09-03T11:41:22.466Z,30.70
2022-09-03T11:44:20.581Z,30.90
2022-09-03T11:47:25.037Z,30.90
2022-09-03T11:50:34.168Z,31.10
2022-09-03T11:53:33.317Z,31.90
2022-09-03T11:56:20.902Z,32.10
2022-09-03T11:59:14.952Z,32.40
2022-09-03T12:02:21.886Z,32.10
2022-09-03T12:05:15.772Z,31.00
2022-09-03T12:08:43.691Z,31.60
2022-09-03T12:12:13.432Z,31.50
2022-09-03T12:15:34.199Z,31.80
2022-09-03T12:18:31.067Z,32.00
2022-09-03T12:21:19.252Z,32.60
2022-09-03T12:24:11.963Z,32.40
2022-09-03T12:27:01.022Z,32.60
2022-09-03T12:30:21.632Z,32.60
2022-09-03T12:33:13.522Z,32.40
2022-09-03T12:36:02.521Z,32.70
2022-09-03T12:39:10.947Z,32.40
2022-09-03T12:42:09.537Z,32.70
2022-09-03T12:45:07.137Z,33.20
2022-09-03T12:47:54.739Z,33.20
2022-09-03T12:50:49.383Z,33.40
2022-09-03T12:53:43.938Z,33.60
2022-09-03T12:56:33.392Z,33.20
2022-09-03T12:59:22.942Z,33.30
2022-09-03T13:02:29.031Z,33.20
2022-09-03T13:05:26.363Z,32.90
2022-09-03T13:08:31.477Z,32.80
2022-09-03T13:11:24.080Z,32.60
2022-09-03T13:14:17.712Z,32.10
2022-09-03T13:17:47.357Z,32.50
2022-09-03T13:21:05.423Z,32.50
2022-09-03T13:24:21.947Z,32.90
2022-09-03T13:27:41.368Z,33.30
2022-09-03T13:31:08.787Z,33.30
2022-09-03T13:34:15.924Z,33.40
2022-09-03T13:37:26.528Z,33.30
2022-09-03T13:41:20.446Z,33.20
2022-09-03T13:44:24.852Z,33.70
2022-09-03T13:48:00.652Z,33.60
2022-09-03T13:51:04.294Z,33.30
2022-09-03T13:54:47.658Z,33.20
2022-09-03T13:57:49.472Z,32.90
2022-09-03T14:00:59.301Z,32.80
2022-09-03T14:04:27.707Z,33.00
2022-09-03T14:07:58.993Z,33.40
2022-09-03T14:11:09.950Z,33.60
2022-09-03T14:14:30.412Z,33.10
2022-09-03T14:18:03.252Z,32.80
2022-09-03T14:21:27.747Z,32.60
2022-09-03T14:24:48.761Z,32.40
2022-09-03T14:27:36.812Z,32.50
2022-09-03T14:31:15.650Z,32.50
2022-09-03T14:34:19.344Z,32.40
2022-09-03T14:37:39.792Z,32.50
2022-09-03T14:40:57.917Z,32.40
2022-09-03T14:44:32.168Z,32.70
2022-09-03T14:47:57.989Z,32.40
2022-09-03T14:51:22.724Z,32.70
2022-09-03T14:54:37.060Z,32.90
2022-09-03T14:58:07.692Z,32.60
2022-09-03T15:00:58.116Z,33.30
2022-09-03T15:04:10.118Z,33.50
2022-09-03T15:07:25.361Z,33.50
2022-09-03T15:10:39.583Z,32.90
2022-09-03T15:14:00.843Z,32.90
2022-09-03T15:17:15.253Z,32.00
2022-09-03T15:20:45.496Z,32.20
2022-09-03T15:24:18.643Z,31.90
2022-09-03T15:28:04.448Z,31.90
2022-09-03T15:30:57.729Z,31.80
2022-09-03T15:34:09.904Z,31.70
2022-09-03T15:37:06.608Z,31.50
2022-09-03T15:40:23.633Z,31.40
2022-09-03T15:43:26.266Z,31.40
2022-09-03T15:46:53.653Z,31.70
2022-09-03T15:50:13.666Z,31.50
2022-09-03T15:53:47.401Z,31.50
2022-09-03T15:57:00.804Z,31.40
2022-09-03T15:59:59.869Z,31.40
2022-09-03T16:02:55.830Z,31.20
2022-09-03T16:06:03.069Z,31.20
2022-09-03T16:09:05.133Z,31.30
2022-09-03T16:12:09.888Z,31.30
2022-09-03T16:15:35.284Z,31.10
2022-09-03T16:18:32.769Z,31.10
2022-09-03T16:21:42.489Z,31.00
2022-09-03T16:25:08.928Z,30.90
2022-09-03T16:28:16.109Z,30.90
2022-09-03T16:31:38.164Z,30.70
2022-09-03T16:35:05.999Z,30.70
2022-09-03T16:38:05.243Z,30.50
2022-09-03T16:41:16.783Z,30.40
2022-09-03T16:44:41.863Z,30.40
2022-09-03T16:48:17.134Z,30.10
2022-09-03T16:51:33.388Z,30.00
2022-09-03T16:54:57.126Z,29.40
2022-09-03T16:58:44.705Z,29.20
2022-09-03T17:02:39.988Z,29.00
2022-09-03T17:06:17.368Z,28.80
2022-09-03T17:09:55.599Z,28.60
2022-09-03T17:13:23.214Z,28.40
2022-09-03T17:16:35.059Z,28.40
2022-09-03T17:19:52.264Z,28.50
2022-09-03T17:23:12.888Z,28.60
2022-09-03T17:26:18.371Z,28.80
2022-09-03T17:29:45.084Z,28.80
2022-09-03T17:32:46.208Z,28.90
2022-09-03T17:35:51.733Z,28.90
2022-09-03T17:39:09.983Z,29.00
2022-09-03T17:42:24.498Z,28.80
2022-09-03T17:45:30.072Z,28.90
2022-09-03T17:49:01.083Z,28.80
2022-09-03T17:52:04.542Z,28.60
2022-09-03T17:55:16.948Z,27.80
2022-09-03T17:58:32.666Z,27.70
2022-09-03T18:01:36.079Z,27.70
2022-09-03T18:04:48.598Z,27.40
2022-09-03T18:08:11.846Z,27.00
2022-09-03T18:11:19.024Z,26.90
2022-09-03T18:14:31.803Z,26.60
2022-09-03T18:17:43.263Z,26.50
2022-09-03T18:21:22.992Z,26.30
2022-09-03T18:24:52.330Z,26.30
2022-09-03T18:28:20.057Z,26.20
2022-09-03T18:31:34.987Z,26.10
2022-09-03T18:34:49.647Z,25.80
2022-09-03T18:37:55.774Z,25.70
2022-09-03T18:41:50.009Z,25.50
2022-09-03T18:46:07.974Z,25.10
2022-09-03T18:49:13.360Z,25.20
2022-09-03T18:52:31.102Z,25.10
2022-09-03T18:56:06.963Z,25.30
2022-09-03T18:59:48.959Z,25.10
2022-09-03T19:03:42.598Z,24.90
2022-09-03T19:07:22.197Z,24.80
2022-09-03T19:10:45.232Z,24.50
2022-09-03T19:14:00.137Z,23.90
2022-09-03T19:17:47.479Z,23.80
2022-09-03T19:20:58.242Z,24.70
2022-09-03T19:24:04.543Z,24.40
2022-09-03T19:27:59.923Z,24.60
2022-09-03T19:31:14.588Z,24.70
2022-09-03T19:34:50.629Z,24.80
2022-09-03T19:38:39.271Z,24.80
2022-09-03T19:42:06.872Z,24.60
2022-09-03T19:45:15.859Z,24.70
2022-09-03T19:48:55.532Z,24.50
2022-09-03T19:52:27.632Z,24.70
2022-09-03T19:55:44.409Z,24.60
2022-09-03T19:58:56.942Z,24.50
2022-09-03T20:02:05.677Z,24.30
2022-09-03T20:05:16.512Z,24.20
2022-09-03T20:08:25.146Z,24.20
2022-09-03T20:11:20.451Z,24.50
2022-09-03T20:14:16.105Z,24.30
2022-09-03T20:17:31.312Z,24.50
2022-09-03T20:20:18.952Z,24.40
2022-09-03T20:23:41.187Z,24.60
2022-09-03T20:27:09.707Z,24.30
2022-09-03T20:30:12.744Z,24.20
2022-09-03T20:33:22.973Z,24.50
2022-09-03T20:36:41.074Z,24.70
2022-09-03T20:39:34.309Z,24.30
2022-09-03T20:42:40.102Z,24.70
2022-09-03T20:45:41.147Z,24.80
2022-09-03T20:48:56.193Z,24.90
2022-09-03T20:52:06.216Z,24.70
2022-09-03T20:55:08.832Z,24.90
2022-09-03T20:58:11.237Z,24.80
2022-09-03T21:01:23.361Z,24.70
2022-09-03T21:04:28.896Z,24.60
2022-09-03T21:08:25.843Z,24.90
2022-09-03T21:11:28.597Z,24.80
2022-09-03T21:14:38.207Z,24.80
2022-09-03T21:18:06.252Z,24.80
2022-09-03T21:21:24.673Z,25.00
2022-09-03T21:24:19.721Z,24.90
2022-09-03T21:27:21.190Z,24.80
2022-09-03T21:30:14.778Z,24.90
2022-09-03T21:33:23.612Z,24.90
2022-09-03T21:36:30.658Z,24.90
2022-09-03T21:39:32.346Z,24.80
2022-09-03T21:42:42.398Z,24.90
2022-09-03T21:46:06.865Z,24.80
2022-09-03T21:49:00.737Z,24.80
2022-09-03T21:51:57.664Z,24.70
2022-09-03T21:54:45.188Z,24.70
2022-09-03T21:58:07.233Z,24.80
2022-09-03T22:01:10.603Z,24.60
2022-09-03T22:03:58.072Z,24.50
2022-09-03T22:07:03.735Z,24.40
2022-09-03T22:10:06.168Z,24.40
2022-09-03T22:13:16.903Z,24.40
2022-09-03T22:16:35.357Z,24.50
2022-09-03T22:19:23.450Z,24.50
2022-09-03T22:22:26.707Z,24.50
2022-09-03T22:26:07.487Z,24.30
2022-09-03T22:29:15.387Z,24.40
2022-09-03T22:32:36.349Z,24.40
2022-09-03T22:35:47.879Z,24.50
2022-09-03T22:38:50.117Z,24.40
2022-09-03T22:42:10.174Z,24.30
2022-09-03T22:45:44.459Z,24.30
2022-09-03T22:49:16.995Z,24.40
2022-09-03T22:52:29.352Z,24.30
2022-09-03T22:55:23.617Z,24.30
2022-09-03T22:58:29.497Z,24.20
2022-09-03T23:01:34.860Z,24.10
2022-09-03T23:04:38.352Z,24.10
2022-09-03T23:08:03.297Z,24.10
2022-09-03T23:11:11.493Z,24.20
2022-09-03T23:14:18.365Z,24.00
2022-09-03T23:17:14.716Z,24.00
2022-09-03T23:20:25.152Z,23.90
2022-09-03T23:23:35.932Z,23.90
2022-09-03T23:26:51.486Z,23.80
2022-09-03T23:29:56.272Z,23.80
2022-09-03T23:32:44.125Z,23.50
2022-09-03T23:36:07.738Z,23.60
2022-09-03T23:39:03.421Z,23.60
2022-09-03T23:42:19.892Z,23.60
2022-09-03T23:46:06.758Z,23.60
2022-09-03T23:49:21.572Z,23.60
2022-09-03T23:52:34.228Z,23.50
2022-09-03T23:55:56.698Z,23.30
2022-09-03T23:59:31.748Z,23.40
